Time;durP1;ratioP1;P1;durP2;ratioP2;P2;SDS_P1;SDS_P2;PMS_P1;PMS_P2;Temp;Humidity;BMP_temperature;BMP_pressure;BME280_temperature;BME280_humidity;BME280_pressure;Samples;Min_cycle;Max_cycle;Signal;HPM_P1;HPM_P2
2021/11/12 00:04:54;;;;;;;24.95;10.32;;;10.00;93.90;;;;;;4988981;28;20173;-47
2021/11/12 00:12:59;;;;;;;33.03;10.57;;;10.10;93.80;;;;;;4989110;28;20033;-46
2021/11/12 00:15:25;;;;;;;27.00;10.30;;;10.00;93.80;;;;;;4986032;28;20501;-47
2021/11/12 00:17:50;;;;;;;21.35;10.23;;;10.00;93.80;;;;;;4987420;28;20126;-46
2021/11/12 00:20:16;;;;;;;25.58;10.27;;;10.00;93.80;;;;;;4976023;28;20050;-46
2021/11/12 00:22:42;;;;;;;22.90;10.10;;;10.00;93.70;;;;;;4972317;28;20023;-47
2021/11/12 00:25:07;;;;;;;24.17;10.65;;;10.00;93.70;;;;;;4975602;28;20170;-47
2021/11/12 00:27:34;;;;;;;23.75;11.20;;;10.00;93.70;;;;;;4998674;28;20369;-48
2021/11/12 00:40:06;;;;;;;16.45;9.27;;;10.00;93.70;;;;;;5011671;28;20029;-47
2021/11/12 00:45:05;;;;;;;15.55;8.60;;;10.00;93.70;;;;;;5011009;28;20028;-47
2021/11/12 00:55:18;;;;;;;23.35;9.60;;;10.00;93.60;;;;;;5008677;28;20025;-47
2021/11/12 00:57:45;;;;;;;18.65;8.70;;;10.00;93.60;;;;;;5001364;28;20034;-47
2021/11/12 01:00:12;;;;;;;16.63;8.40;;;10.00;93.60;;;;;;5001306;28;20035;-47
2021/11/12 01:02:38;;;;;;;20.40;9.10;;;10.00;93.60;;;;;;4995541;28;20041;-47
2021/11/12 01:05:06;;;;;;;18.90;8.77;;;10.00;93.50;;;;;;5010187;28;20456;-46
2021/11/12 01:07:32;;;;;;;20.58;9.48;;;10.00;93.50;;;;;;5010740;28;20029;-47
2021/11/12 01:09:58;;;;;;;24.27;9.98;;;10.00;93.50;;;;;;4993361;28;20028;-47
2021/11/12 01:12:24;;;;;;;19.10;9.02;;;10.00;93.50;;;;;;5008510;28;20056;-47
2021/11/12 01:14:50;;;;;;;22.67;9.80;;;10.00;93.50;;;;;;5011208;28;20030;-47
2021/11/12 01:17:16;;;;;;;16.38;10.00;;;10.00;93.50;;;;;;4992945;28;20057;-47
2021/11/12 01:19:42;;;;;;;19.67;8.57;;;10.00;93.50;;;;;;4992658;28;20118;-47
2021/11/12 01:22:08;;;;;;;22.10;8.23;;;10.00;93.40;;;;;;4991136;28;20355;-46
2021/11/12 01:24:35;;;;;;;18.02;8.23;;;10.00;93.40;;;;;;4991654;28;20041;-46
2021/11/12 01:27:02;;;;;;;17.63;8.35;;;10.00;93.40;;;;;;4994379;28;20038;-47
2021/11/12 01:29:28;;;;;;;18.60;7.95;;;10.00;93.40;;;;;;5009194;28;20527;-46
2021/11/12 01:31:54;;;;;;;23.38;9.55;;;10.00;93.40;;;;;;5010219;28;20132;-48
2021/11/12 01:34:19;;;;;;;26.75;9.43;;;10.00;93.40;;;;;;5010533;28;20104;-48
2021/11/12 01:36:47;;;;;;;21.40;9.32;;;10.00;93.40;;;;;;5010100;28;20378;-47
2021/11/12 01:39:16;;;;;;;20.33;9.00;;;10.00;93.30;;;;;;5010535;28;20026;-47
2021/11/12 01:41:47;;;;;;;21.03;9.03;;;9.90;93.30;;;;;;5008807;28;20449;-48
2021/11/12 01:44:14;;;;;;;21.15;9.13;;;10.00;93.30;;;;;;5010699;28;20360;-47
2021/11/12 01:49:35;;;;;;;15.20;7.20;;;9.90;93.30;;;;;;5011432;28;20084;-47
2021/11/12 01:57:21;;;;;;;25.85;7.95;;;9.90;93.30;;;;;;4991469;28;20305;-47
2021/11/12 01:59:45;;;;;;;22.73;7.78;;;10.00;93.30;;;;;;4991113;28;20462;-46
2021/11/12 02:02:11;;;;;;;15.88;7.65;;;9.90;93.30;;;;;;4991862;28;20043;-46
2021/11/12 02:04:37;;;;;;;15.50;8.88;;;9.90;93.30;;;;;;4990432;28;20031;-46
2021/11/12 02:07:04;;;;;;;16.65;9.07;;;9.90;93.20;;;;;;5007554;28;20061;-46
2021/11/12 02:09:31;;;;;;;17.02;8.40;;;9.90;93.20;;;;;;5010763;28;20271;-46
2021/11/12 02:12:21;;;;;;;16.60;7.32;;;9.90;93.60;;;;;;4996038;28;20135;-47
2021/11/12 02:14:48;;;;;;;18.25;7.75;;;9.90;93.20;;;;;;5008383;28;20471;-46
2021/11/12 02:17:23;;;;;;;19.60;7.57;;;9.90;93.20;;;;;;5009382;28;20484;-46
2021/11/12 02:19:56;;;;;;;13.00;7.18;;;9.90;93.20;;;;;;5012796;28;20075;-51
2021/11/12 02:22:25;;;;;;;16.35;8.23;;;9.90;93.20;;;;;;5012738;28;20361;-46
2021/11/12 02:25:02;;;;;;;19.77;8.32;;;9.90;93.10;;;;;;4994621;28;20381;-47
2021/11/12 02:27:36;;;;;;;17.92;8.50;;;9.90;93.10;;;;;;4997548;28;20428;-46
2021/11/12 02:30:03;;;;;;;17.73;8.23;;;9.90;93.10;;;;;;5013977;28;20026;-46
2021/11/12 02:32:30;;;;;;;15.23;7.20;;;9.90;93.10;;;;;;5012101;28;20038;-46
2021/11/12 02:34:59;;;;;;;21.02;9.02;;;9.90;93.10;;;;;;5007909;28;20659;-46
2021/11/12 02:37:27;;;;;;;15.57;7.20;;;9.90;93.10;;;;;;5013503;28;20449;-47
2021/11/12 02:39:54;;;;;;;16.60;8.13;;;9.90;93.10;;;;;;4995146;28;20026;-46
2021/11/12 02:42:21;;;;;;;16.33;7.53;;;9.90;93.10;;;;;;4995279;28;20030;-46
2021/11/12 02:44:47;;;;;;;22.20;7.97;;;9.90;93.10;;;;;;5011833;28;20021;-46
2021/11/12 02:47:15;;;;;;;13.77;7.43;;;9.90;93.10;;;;;;5012537;28;20438;-46
2021/11/12 02:49:42;;;;;;;15.02;7.50;;;9.90;93.10;;;;;;5013650;28;20053;-46
2021/11/12 02:52:09;;;;;;;15.65;7.97;;;9.90;93.10;;;;;;5001188;28;20064;-46
2021/11/12 02:54:36;;;;;;;16.75;7.55;;;9.90;93.10;;;;;;4994639;28;20049;-46
2021/11/12 02:57:04;;;;;;;16.17;7.38;;;9.90;93.10;;;;;;4993004;28;20038;-47
2021/11/12 02:59:29;;;;;;;20.23;8.52;;;9.90;93.10;;;;;;5011545;28;20030;-46
2021/11/12 03:02:01;;;;;;;12.82;7.88;;;9.90;93.10;;;;;;5012805;28;20037;-47
2021/11/12 03:04:27;;;;;;;11.43;6.93;;;9.90;93.10;;;;;;5013855;28;20040;-46
2021/11/12 03:06:55;;;;;;;9.88;6.10;;;9.90;93.10;;;;;;4996144;28;20038;-46
2021/11/12 03:09:24;;;;;;;11.48;6.13;;;9.90;93.10;;;;;;4993722;28;20026;-46
2021/11/12 03:11:51;;;;;;;14.10;6.32;;;9.90;93.20;;;;;;4993657;28;20026;-46
2021/11/12 03:14:17;;;;;;;12.90;7.13;;;9.90;93.10;;;;;;5008339;28;20057;-46
2021/11/12 03:16:43;;;;;;;15.35;7.85;;;9.90;93.10;;;;;;5010111;28;20088;-47
2021/11/12 03:19:10;;;;;;;15.43;8.10;;;9.90;93.10;;;;;;5008799;28;20026;-46
2021/11/12 03:21:38;;;;;;;10.90;6.53;;;9.90;93.10;;;;;;4993662;28;20050;-46
2021/11/12 03:24:15;;;;;;;9.55;6.60;;;9.90;93.10;;;;;;5011171;28;20236;-46
2021/11/12 04:40:44;;;;;;;8.60;5.53;;;9.90;93.00;;;;;;4992767;28;20089;-46
2021/11/12 05:56:13;;;;;;;10.13;5.20;;;9.80;92.90;;;;;;5014077;28;20473;-46
2021/11/12 05:58:38;;;;;;;9.48;5.30;;;9.80;92.80;;;;;;5014450;28;20116;-46
2021/11/12 06:01:05;;;;;;;8.75;5.30;;;9.80;92.80;;;;;;5011805;28;20091;-46
2021/11/12 06:03:31;;;;;;;8.45;5.30;;;9.80;92.80;;;;;;5014102;28;20096;-47
2021/11/12 06:05:56;;;;;;;9.48;5.50;;;9.80;92.80;;;;;;5012093;28;20108;-46
2021/11/12 06:08:22;;;;;;;13.75;5.55;;;9.80;92.80;;;;;;5014553;28;20110;-46
2021/11/12 06:10:48;;;;;;;9.98;5.97;;;9.90;92.80;;;;;;5003057;28;20130;-46
2021/11/12 06:13:13;;;;;;;7.22;5.25;;;9.80;92.70;;;;;;4994293;28;20026;-47
2021/11/12 06:15:39;;;;;;;8.93;5.20;;;9.80;92.70;;;;;;5006828;28;20037;-47
2021/11/12 06:18:06;;;;;;;10.25;5.70;;;9.80;92.50;;;;;;4993940;28;20117;-47
2021/11/12 06:20:33;;;;;;;8.35;5.55;;;9.80;92.50;;;;;;4995382;28;20074;-46
2021/11/12 06:22:59;;;;;;;12.05;5.93;;;9.80;92.50;;;;;;4995216;28;20468;-47
2021/11/12 06:25:24;;;;;;;8.55;5.13;;;9.80;92.50;;;;;;4993670;28;20030;-46
2021/11/12 06:27:50;;;;;;;9.10;5.25;;;9.80;92.50;;;;;;5013044;28;20033;-46
2021/11/12 06:30:17;;;;;;;9.23;5.45;;;9.80;92.50;;;;;;5011395;28;20491;-46
2021/11/12 06:32:44;;;;;;;9.73;5.10;;;9.80;92.50;;;;;;5013293;28;20037;-47
2021/11/12 06:35:10;;;;;;;10.23;5.50;;;9.80;92.50;;;;;;5012205;28;20034;-47
2021/11/12 06:37:36;;;;;;;9.05;5.43;;;9.80;92.40;;;;;;5013920;28;20041;-46
2021/11/12 06:40:05;;;;;;;8.70;5.05;;;9.80;92.40;;;;;;5013976;28;20022;-46
2021/11/12 06:42:36;;;;;;;12.23;5.78;;;9.80;92.50;;;;;;5011505;28;20427;-46
2021/11/12 06:50:38;;;;;;;9.65;5.50;;;9.80;92.50;;;;;;4994245;28;20045;-46
2021/11/12 06:53:04;;;;;;;10.68;6.18;;;9.80;92.50;;;;;;4994638;28;20026;-46
2021/11/12 06:55:30;;;;;;;9.73;5.75;;;9.80;92.50;;;;;;4993287;28;20076;-47
2021/11/12 06:57:56;;;;;;;13.82;6.55;;;9.80;92.60;;;;;;4993138;28;20037;-47
2021/11/12 07:00:22;;;;;;;15.88;7.05;;;9.80;92.60;;;;;;5002426;28;20052;-46
2021/11/12 07:02:48;;;;;;;10.27;6.20;;;9.80;92.50;;;;;;5010056;28;20080;-46
2021/11/12 07:05:15;;;;;;;10.50;5.13;;;9.80;92.60;;;;;;5011492;28;20670;-46
2021/11/12 07:07:41;;;;;;;9.75;5.85;;;9.80;92.60;;;;;;5013129;28;20044;-47
2021/11/12 07:10:09;;;;;;;11.73;6.13;;;9.80;92.60;;;;;;5012958;28;20186;-46
2021/11/12 07:12:35;;;;;;;12.68;6.30;;;9.80;92.60;;;;;;5011485;28;20053;-48
2021/11/12 07:15:01;;;;;;;10.32;4.88;;;9.80;92.60;;;;;;4997081;28;20107;-47
2021/11/12 07:17:27;;;;;;;14.43;5.95;;;9.80;92.60;;;;;;5012076;28;20042;-46
2021/11/12 07:19:52;;;;;;;9.55;5.50;;;9.80;92.60;;;;;;5012755;28;20025;-46
2021/11/12 07:22:18;;;;;;;11.25;5.72;;;9.80;92.60;;;;;;5013457;28;20026;-46
2021/11/12 07:24:45;;;;;;;10.35;5.68;;;9.80;92.60;;;;;;5011549;28;20022;-47
2021/11/12 07:27:12;;;;;;;10.88;5.07;;;9.80;92.60;;;;;;5005709;28;20030;-47
2021/11/12 07:29:39;;;;;;;10.38;6.18;;;9.70;92.60;;;;;;4993651;28;20034;-46
2021/11/12 07:32:06;;;;;;;11.15;5.13;;;9.80;92.70;;;;;;5012374;28;20084;-47
2021/11/12 07:34:33;;;;;;;10.40;5.93;;;9.80;92.70;;;;;;5011136;28;20033;-47
2021/11/12 07:37:07;;;;;;;13.93;6.38;;;9.80;92.70;;;;;;5016476;28;20038;-47
2021/11/12 07:47:16;;;;;;;11.15;5.63;;;9.80;92.70;;;;;;5010134;28;20100;-47
2021/11/12 07:49:57;;;;;;;8.80;5.57;;;9.80;92.70;;;;;;5012745;28;20026;-47
2021/11/12 07:52:27;;;;;;;12.57;5.75;;;9.80;92.70;;;;;;4993432;28;20042;-46
2021/11/12 07:54:54;;;;;;;10.93;5.88;;;9.80;92.70;;;;;;5002961;28;20040;-47
2021/11/12 07:57:20;;;;;;;12.88;6.18;;;9.80;92.70;;;;;;5011943;28;20373;-47
2021/11/12 07:59:46;;;;;;;11.35;5.85;;;9.80;92.70;;;;;;5004561;28;20018;-47
2021/11/12 08:02:14;;;;;;;14.38;6.50;;;9.80;92.70;;;;;;5010755;28;20425;-46
2021/11/12 08:04:40;;;;;;;10.98;5.82;;;9.80;92.70;;;;;;5011911;28;20052;-46
2021/11/12 08:07:06;;;;;;;14.60;6.82;;;9.80;92.70;;;;;;5013586;28;20520;-46
2021/11/12 08:09:35;;;;;;;10.80;6.13;;;9.80;92.70;;;;;;5011262;28;20476;-47
2021/11/12 08:12:04;;;;;;;13.45;7.30;;;9.80;92.70;;;;;;5011353;28;20034;-46
2021/11/12 08:14:47;;;;;;;8.75;5.28;;;9.80;92.70;;;;;;5012078;28;20047;-47
2021/11/12 08:22:13;;;;;;;10.90;5.25;;;9.80;92.70;;;;;;5011391;28;20500;-47
2021/11/12 08:24:52;;;;;;;10.57;5.07;;;9.80;92.70;;;;;;4993004;28;20018;-47
2021/11/12 08:30:31;;;;;;;11.95;5.93;;;9.80;92.70;;;;;;4992013;28;20032;-47
2021/11/12 08:33:02;;;;;;;14.95;6.70;;;9.80;92.70;;;;;;4990920;28;20043;-46
2021/11/12 08:38:17;;;;;;;11.32;6.10;;;9.90;92.70;;;;;;4992445;28;20034;-46
2021/11/12 08:43:19;;;;;;;13.63;5.88;;;9.80;92.70;;;;;;5023413;28;20035;-46
2021/11/12 08:48:21;;;;;;;18.63;6.22;;;9.80;92.70;;;;;;5009019;28;20365;-47
2021/11/12 08:50:47;;;;;;;18.50;6.55;;;9.90;92.80;;;;;;5010816;28;20408;-47
2021/11/12 08:53:15;;;;;;;14.60;6.13;;;9.90;92.80;;;;;;4991059;28;20026;-46
2021/11/12 08:55:42;;;;;;;10.40;5.88;;;9.80;92.70;;;;;;4990922;28;20051;-46
2021/11/12 08:58:10;;;;;;;10.63;5.53;;;9.80;92.70;;;;;;4992103;28;20030;-47
2021/11/12 09:00:38;;;;;;;13.48;6.88;;;9.80;92.70;;;;;;4993304;28;20329;-47
2021/11/12 09:03:04;;;;;;;15.65;6.75;;;9.80;92.70;;;;;;5010317;28;20057;-47
2021/11/12 09:05:31;;;;;;;14.95;6.82;;;9.90;92.80;;;;;;5010284;28;20052;-47
2021/11/12 09:07:57;;;;;;;15.25;7.32;;;9.80;92.70;;;;;;5010472;28;20037;-46
2021/11/12 09:10:26;;;;;;;15.40;6.55;;;9.80;92.70;;;;;;5009281;28;20103;-47
2021/11/12 09:13:39;;;;;;;16.27;7.13;;;9.80;92.80;;;;;;5010761;28;20449;-46
2021/11/12 09:15:48;;;;;;;13.27;6.35;;;9.80;92.80;;;;;;5008727;28;20049;-47
2021/11/12 09:18:13;;;;;;;16.30;6.68;;;9.90;92.80;;;;;;5028657;28;20044;-47
2021/11/12 09:20:39;;;;;;;8.20;4.63;;;9.90;92.80;;;;;;5004865;28;20117;-46
2021/11/12 09:23:06;;;;;;;10.05;5.78;;;9.90;92.80;;;;;;4990730;28;20058;-47
2021/11/12 09:25:31;;;;;;;13.05;6.43;;;9.90;92.80;;;;;;4990877;28;20038;-46
2021/11/12 09:27:57;;;;;;;15.13;6.88;;;9.90;92.80;;;;;;4990321;28;20027;-47
2021/11/12 09:30:25;;;;;;;13.77;6.80;;;9.90;92.80;;;;;;4995569;28;20048;-46
2021/11/12 09:32:55;;;;;;;12.27;7.00;;;9.90;92.80;;;;;;5012455;28;20385;-46
2021/11/12 09:35:21;;;;;;;17.77;6.57;;;9.90;92.80;;;;;;4993996;28;20042;-46
2021/11/12 09:37:47;;;;;;;14.98;6.47;;;9.90;92.80;;;;;;5000924;28;20072;-46
2021/11/12 09:40:13;;;;;;;19.63;7.28;;;9.90;92.80;;;;;;5013939;28;20049;-47
2021/11/12 09:42:39;;;;;;;14.98;6.85;;;9.90;92.80;;;;;;4996476;28;20072;-47
2021/11/12 09:45:07;;;;;;;11.45;6.35;;;9.90;92.80;;;;;;4993424;28;20026;-47
2021/11/12 09:47:33;;;;;;;15.82;6.93;;;9.90;92.80;;;;;;5005063;28;20097;-46
2021/11/12 09:50:01;;;;;;;14.45;7.45;;;9.90;92.80;;;;;;5014027;28;20033;-47
2021/11/12 09:52:28;;;;;;;20.73;7.28;;;9.90;92.80;;;;;;4999706;28;20022;-46
2021/11/12 09:54:55;;;;;;;13.02;6.47;;;9.90;92.90;;;;;;4994278;28;20034;-47
2021/11/12 09:57:22;;;;;;;17.95;7.15;;;9.90;92.90;;;;;;4994634;28;20044;-47
2021/11/12 09:59:56;;;;;;;13.27;6.72;;;9.90;92.90;;;;;;4994604;28;20022;-46
2021/11/12 10:02:23;;;;;;;20.75;9.13;;;9.90;92.90;;;;;;5005059;28;20337;-47
2021/11/12 10:04:49;;;;;;;26.77;9.15;;;9.90;92.90;;;;;;5014132;28;20100;-47
2021/11/12 10:07:17;;;;;;;21.73;9.00;;;9.90;92.90;;;;;;5007988;28;20022;-47
2021/11/12 10:09:44;;;;;;;23.92;10.00;;;9.90;92.90;;;;;;4994762;28;20026;-47
2021/11/12 10:12:11;;;;;;;29.30;12.18;;;9.90;92.90;;;;;;4994685;28;20361;-47
2021/11/12 10:17:12;;;;;;;25.27;10.88;;;9.90;92.90;;;;;;5007193;28;20049;-48
2021/11/12 10:19:45;;;;;;;23.25;10.45;;;9.90;93.30;;;;;;5013699;28;20057;-47
2021/11/12 10:22:11;;;;;;;18.00;9.90;;;9.90;93.00;;;;;;5014613;28;20030;-47
2021/11/12 10:24:41;;;;;;;27.90;11.10;;;9.90;92.90;;;;;;5022486;28;20025;-47
2021/11/12 10:27:19;;;;;;;36.08;10.85;;;9.90;92.90;;;;;;5017298;28;20033;-47
2021/11/12 10:29:48;;;;;;;28.15;11.48;;;9.90;92.90;;;;;;5023987;28;20037;-47
2021/11/12 10:32:19;;;;;;;33.30;11.88;;;10.00;93.00;;;;;;5017806;28;20026;-47
2021/11/12 10:34:48;;;;;;;23.50;9.82;;;9.90;93.00;;;;;;5010514;28;20453;-47
2021/11/12 10:37:21;;;;;;;32.47;11.52;;;9.90;93.00;;;;;;5010076;28;20361;-47
2021/11/12 10:39:52;;;;;;;27.27;10.82;;;9.90;93.00;;;;;;5002033;28;20034;-48
2021/11/12 10:42:27;;;;;;;30.13;12.00;;;9.90;93.40;;;;;;4993826;28;20026;-47
2021/11/12 10:45:04;;;;;;;36.22;12.77;;;10.00;93.10;;;;;;4994819;28;20057;-47
2021/11/12 10:47:32;;;;;;;28.90;11.18;;;10.00;93.10;;;;;;5004038;28;20129;-47
2021/11/12 10:49:59;;;;;;;24.70;9.48;;;10.00;93.10;;;;;;4998185;28;20109;-47
2021/11/12 10:52:27;;;;;;;23.17;9.98;;;10.00;93.10;;;;;;4993714;28;20376;-47
2021/11/12 10:55:00;;;;;;;26.23;9.55;;;10.00;93.10;;;;;;4993772;28;20029;-46
2021/11/12 10:57:32;;;;;;;29.23;11.25;;;10.00;93.20;;;;;;5012430;28;20045;-46
2021/11/12 11:00:15;;;;;;;26.38;11.55;;;10.00;93.20;;;;;;5012916;28;20026;-47
2021/11/12 11:02:50;;;;;;;26.75;10.77;;;10.00;93.20;;;;;;5003462;28;20113;-47
2021/11/12 11:05:28;;;;;;;27.55;11.27;;;10.00;93.20;;;;;;4993499;28;20084;-46
2021/11/12 11:07:56;;;;;;;31.17;11.65;;;10.00;93.20;;;;;;4994651;28;20031;-47
2021/11/12 11:10:29;;;;;;;26.10;10.48;;;10.00;93.20;;;;;;4993397;28;20034;-46
2021/11/12 11:13:09;;;;;;;25.95;10.70;;;10.00;93.20;;;;;;4993154;28;20648;-46
2021/11/12 11:15:48;;;;;;;24.25;9.07;;;10.00;93.20;;;;;;4992335;28;20109;-47
2021/11/12 11:18:24;;;;;;;28.63;11.02;;;10.00;93.30;;;;;;5008290;28;20461;-47
2021/11/12 11:21:05;;;;;;;29.60;11.55;;;10.00;93.30;;;;;;5012300;28;20018;-47
2021/11/12 11:23:45;;;;;;;29.25;11.48;;;10.00;93.30;;;;;;5014460;28;20442;-46
2021/11/12 11:26:16;;;;;;;22.63;8.50;;;10.00;93.30;;;;;;5032106;28;20041;-47
2021/11/12 11:28:42;;;;;;;22.65;9.65;;;10.00;93.30;;;;;;5003030;28;20461;-46
2021/11/12 11:31:12;;;;;;;22.50;8.75;;;10.10;93.40;;;;;;4992495;28;20033;-46
2021/11/12 11:33:43;;;;;;;24.50;9.82;;;10.00;93.30;;;;;;5008896;28;20034;-47
2021/11/12 11:36:10;;;;;;;32.53;10.95;;;10.10;93.40;;;;;;4991795;28;20048;-46
2021/11/12 11:38:39;;;;;;;21.27;7.80;;;10.10;93.40;;;;;;4993623;28;20089;-47
2021/11/12 11:41:07;;;;;;;23.80;10.50;;;10.00;93.40;;;;;;4992079;28;20037;-46
2021/11/12 11:43:34;;;;;;;24.63;10.85;;;10.10;93.40;;;;;;4992977;28;20030;-46
2021/11/12 11:46:03;;;;;;;29.33;11.55;;;10.10;93.40;;;;;;4991442;28;20468;-47
2021/11/12 11:48:39;;;;;;;29.52;12.05;;;10.00;93.30;;;;;;5005011;28;20487;-47
2021/11/12 11:51:07;;;;;;;23.92;8.73;;;10.10;93.40;;;;;;5011293;28;20473;-46
2021/11/12 11:53:44;;;;;;;17.42;8.77;;;10.10;93.40;;;;;;5011106;28;20026;-46
2021/11/12 11:56:30;;;;;;;36.35;9.25;;;10.10;93.40;;;;;;5011655;28;20065;-47
2021/11/12 11:59:18;;;;;;;29.35;11.95;;;10.10;93.40;;;;;;5011533;28;20091;-46
2021/11/12 12:01:48;;;;;;;30.33;10.88;;;10.10;93.40;;;;;;4992923;28;20113;-46
2021/11/12 12:04:14;;;;;;;24.77;9.48;;;10.10;93.50;;;;;;5011428;28;20065;-46
2021/11/12 12:06:41;;;;;;;31.02;11.10;;;10.10;93.50;;;;;;5010931;28;20076;-46
2021/11/12 12:09:10;;;;;;;26.95;11.55;;;10.10;93.40;;;;;;4996476;28;20041;-47
2021/11/12 12:11:52;;;;;;;43.05;14.65;;;10.10;93.40;;;;;;4993456;28;20034;-46
2021/11/12 12:14:34;;;;;;;36.67;11.55;;;10.10;93.50;;;;;;4993013;28;20101;-47
2021/11/12 12:17:06;;;;;;;45.67;15.25;;;10.10;93.50;;;;;;5007690;28;20027;-47
2021/11/12 12:20:12;;;;;;;34.30;12.02;;;10.10;93.40;;;;;;5011491;28;20080;-46
2021/11/12 12:36:52;;;;;;;30.70;12.27;;;10.10;93.50;;;;;;5009414;28;20080;-47
2021/11/12 13:25:33;;;;;;;43.00;17.73;;;10.20;93.50;;;;;;5008718;28;20080;-46
2021/11/12 13:28:11;;;;;;;51.40;18.17;;;10.20;93.50;;;;;;5011214;28;20034;-46
2021/11/12 13:30:38;;;;;;;41.88;13.85;;;10.20;93.60;;;;;;5011182;28;20372;-46
2021/11/12 13:33:05;;;;;;;35.42;15.38;;;10.20;93.60;;;;;;5009985;28;20026;-46
2021/11/12 13:35:33;;;;;;;48.60;16.73;;;10.20;93.50;;;;;;4994363;28;20030;-46
2021/11/12 13:38:00;;;;;;;48.22;15.95;;;10.20;93.50;;;;;;4991150;28;20039;-46
2021/11/12 13:40:33;;;;;;;32.30;11.77;;;10.20;93.50;;;;;;4991153;28;20107;-46
2021/11/12 13:43:00;;;;;;;37.47;14.77;;;10.20;93.50;;;;;;4990982;28;20027;-46
2021/11/12 13:45:28;;;;;;;46.00;16.65;;;10.20;93.50;;;;;;4991014;28;20098;-46
2021/11/12 13:48:14;;;;;;;36.70;14.50;;;10.20;93.50;;;;;;4992476;28;20061;-46
2021/11/12 13:50:53;;;;;;;38.72;14.93;;;10.20;93.50;;;;;;5010830;28;20033;-46
2021/11/12 13:53:19;;;;;;;29.58;12.60;;;10.20;93.50;;;;;;5010217;28;20032;-46
2021/11/12 13:55:45;;;;;;;44.80;14.80;;;10.20;93.60;;;;;;5010210;28;20022;-46
2021/11/12 13:58:16;;;;;;;35.92;14.43;;;10.20;93.50;;;;;;5009130;28;20092;-46
2021/11/12 14:00:42;;;;;;;39.53;13.05;;;10.20;93.50;;;;;;5010517;28;20334;-46
2021/11/12 14:03:17;;;;;;;46.35;13.30;;;10.20;93.60;;;;;;4992850;28;20082;-46
2021/11/12 14:05:58;;;;;;;39.30;15.45;;;10.20;93.60;;;;;;5009158;28;20445;-47
2021/11/12 14:08:37;;;;;;;41.45;17.55;;;10.20;93.80;;;;;;4991117;28;20110;-46
2021/11/12 14:11:24;;;;;;;44.45;16.38;;;10.20;93.50;;;;;;4991082;28;20430;-46
2021/11/12 14:13:56;;;;;;;50.33;15.63;;;10.20;93.60;;;;;;4991187;28;20030;-46
2021/11/12 14:16:31;;;;;;;40.55;16.70;;;10.20;93.60;;;;;;4992441;28;20038;-47
2021/11/12 14:21:39;;;;;;;36.50;14.95;;;10.20;93.60;;;;;;5011718;28;20367;-46
2021/11/12 14:35:05;;;;;;;35.88;15.02;;;10.20;93.60;;;;;;5012132;28;20061;-46
2021/11/12 14:45:38;;;;;;;39.95;14.35;;;10.10;93.50;;;;;;5012060;28;20030;-46
2021/11/12 14:54:10;;;;;;;31.60;13.43;;;10.20;93.50;;;;;;4993321;28;20058;-48
2021/11/12 14:56:17;;;;;;;23.85;10.75;;;10.20;93.50;;;;;;4988708;28;20133;-48
2021/11/12 14:58:46;;;;;;;40.55;14.45;;;10.10;93.30;;;;;;4993804;28;20032;-48
2021/11/12 15:01:18;;;;;;;30.55;12.40;;;10.10;93.30;;;;;;4994492;28;20129;-48
2021/11/12 15:03:45;;;;;;;27.38;10.00;;;10.10;93.30;;;;;;4995924;28;20034;-48
2021/11/12 15:06:13;;;;;;;34.50;12.63;;;10.10;93.30;;;;;;5012139;28;20483;-48
2021/11/12 15:08:51;;;;;;;34.50;13.75;;;10.10;93.30;;;;;;5012739;28;20034;-48
2021/11/12 15:11:21;;;;;;;30.15;12.88;;;10.10;93.30;;;;;;5001846;28;20179;-48
2021/11/12 15:13:49;;;;;;;27.42;12.77;;;10.10;93.40;;;;;;4993673;28;20077;-48
2021/11/12 15:16:25;;;;;;;37.15;12.88;;;10.10;93.40;;;;;;4992056;28;20046;-48
2021/11/12 15:18:56;;;;;;;30.02;10.38;;;10.10;93.40;;;;;;4995658;28;20034;-48
2021/11/12 15:21:26;;;;;;;33.40;12.55;;;10.10;93.30;;;;;;5011241;28;20364;-48
2021/11/12 15:28:55;;;;;;;27.92;11.77;;;10.10;93.40;;;;;;5012793;28;20028;-48
2021/11/12 15:31:35;;;;;;;35.63;13.10;;;10.10;93.40;;;;;;5010245;28;20057;-48
2021/11/12 15:34:04;;;;;;;24.55;11.75;;;10.10;93.40;;;;;;5012157;28;20113;-48
2021/11/12 15:36:33;;;;;;;38.53;14.73;;;10.10;93.40;;;;;;5011532;28;20062;-48
2021/11/12 15:39:11;;;;;;;20.35;9.50;;;10.10;93.40;;;;;;5012404;28;20449;-48
2021/11/12 15:41:58;;;;;;;21.42;9.25;;;10.10;93.40;;;;;;5012011;28;20030;-48
2021/11/12 15:44:26;;;;;;;29.05;12.48;;;10.10;93.40;;;;;;5011307;28;20432;-48
2021/11/12 15:47:03;;;;;;;24.83;9.10;;;10.10;93.70;;;;;;5012030;28;20029;-48
2021/11/12 15:49:29;;;;;;;24.77;10.07;;;10.10;93.40;;;;;;5011168;28;20255;-48
2021/11/12 15:52:06;;;;;;;28.27;11.10;;;10.10;93.40;;;;;;5011563;28;20040;-48
2021/11/12 16:02:54;;;;;;;30.00;12.30;;;10.10;93.50;;;;;;5011727;28;20037;-48
2021/11/12 16:10:43;;;;;;;24.25;11.02;;;10.10;93.50;;;;;;5012156;28;20026;-48
2021/11/12 16:13:17;;;;;;;25.95;12.40;;;10.10;93.50;;;;;;5011172;28;20211;-47
2021/11/12 16:15:50;;;;;;;26.77;10.80;;;10.10;93.50;;;;;;4994052;28;20034;-48
2021/11/12 16:18:34;;;;;;;29.08;12.35;;;10.10;93.50;;;;;;5003247;28;20045;-48
2021/11/12 16:21:24;;;;;;;20.80;9.77;;;10.00;93.50;;;;;;5019380;28;20342;-48
2021/11/12 16:26:24;;;;;;;16.42;8.30;;;10.10;93.50;;;;;;5016695;28;19939;-48
2021/11/12 16:31:31;;;;;;;31.92;11.30;;;10.10;93.50;;;;;;5028009;28;20119;-48
2021/11/12 16:34:00;;;;;;;27.48;10.60;;;10.10;93.50;;;;;;5030970;28;20026;-48
2021/11/12 16:36:27;;;;;;;28.08;12.90;;;10.00;93.50;;;;;;4996840;28;20042;-48
2021/11/12 16:38:52;;;;;;;29.45;10.80;;;10.00;93.50;;;;;;4991371;28;20417;-48
2021/11/12 16:41:22;;;;;;;20.55;9.95;;;10.10;93.50;;;;;;4991731;28;20037;-48
2021/11/12 16:46:49;;;;;;;30.50;11.85;;;10.00;93.50;;;;;;4992046;28;20485;-48
2021/11/12 16:49:23;;;;;;;34.50;11.82;;;10.00;93.50;;;;;;4991627;28;20038;-48
2021/11/12 16:52:00;;;;;;;37.55;12.95;;;10.00;93.50;;;;;;4991190;28;20366;-48
2021/11/12 16:55:14;;;;;;;31.00;12.43;;;10.00;93.50;;;;;;4991456;28;20326;-48
2021/11/12 16:57:35;;;;;;;33.95;12.35;;;10.00;93.50;;;;;;4989694;28;20050;-48
2021/11/12 17:10:47;;;;;;;29.70;13.13;;;10.00;93.50;;;;;;4991852;28;20110;-47
2021/11/12 17:46:39;;;;;;;30.90;13.57;;;10.00;93.60;;;;;;5005494;28;20053;-48
2021/11/12 17:48:39;;;;;;;30.17;11.52;;;10.00;93.50;;;;;;5014252;28;20033;-48
2021/11/12 17:51:29;;;;;;;26.58;11.32;;;10.10;93.60;;;;;;5022458;28;20018;-48
2021/11/12 18:04:59;;;;;;;25.30;11.48;;;10.00;93.60;;;;;;5002317;28;20109;-48
2021/11/12 21:44:30;;;;;;;11.15;5.72;;;9.90;93.30;;;;;;4999563;28;20110;-48
2021/11/12 21:46:56;;;;;;;17.17;7.93;;;9.90;93.30;;;;;;5012100;28;20036;-48
2021/11/12 21:49:21;;;;;;;21.15;8.10;;;9.90;93.30;;;;;;5002171;28;20034;-48
2021/11/12 21:51:47;;;;;;;19.15;7.72;;;9.90;93.30;;;;;;5008328;28;20027;-48
2021/11/12 21:54:13;;;;;;;17.52;7.43;;;9.90;93.30;;;;;;5013985;28;20046;-48
2021/11/12 21:56:40;;;;;;;19.15;7.57;;;9.90;93.30;;;;;;5004412;28;20024;-48
2021/11/12 21:59:06;;;;;;;17.38;7.47;;;9.90;93.30;;;;;;4995846;28;20026;-48
2021/11/12 22:01:32;;;;;;;12.98;6.22;;;9.90;93.30;;;;;;4994801;28;20350;-48
2021/11/12 22:03:58;;;;;;;11.77;6.20;;;9.90;93.30;;;;;;4994666;28;20433;-48
2021/11/12 22:06:24;;;;;;;17.58;5.95;;;9.90;93.30;;;;;;5005415;28;20188;-48
2021/11/12 22:08:50;;;;;;;15.07;7.90;;;9.90;93.30;;;;;;5011605;28;20037;-48
2021/11/12 22:11:16;;;;;;;14.43;7.03;;;9.90;93.30;;;;;;5014492;28;20018;-48
2021/11/12 22:13:42;;;;;;;15.02;7.60;;;9.90;93.30;;;;;;4997587;28;20023;-48
2021/11/12 22:16:11;;;;;;;16.38;7.82;;;9.90;93.30;;;;;;4993559;28;20592;-48
2021/11/12 22:18:37;;;;;;;16.60;6.28;;;9.90;93.30;;;;;;4994607;28;20026;-48
2021/11/12 22:21:04;;;;;;;13.23;5.97;;;9.90;93.30;;;;;;4995731;28;20034;-48
2021/11/12 22:23:30;;;;;;;15.90;6.88;;;9.90;93.30;;;;;;5005724;28;20039;-48
2021/11/12 22:25:58;;;;;;;16.00;7.57;;;9.90;93.30;;;;;;5012914;28;20033;-48
2021/11/12 22:28:25;;;;;;;22.75;7.50;;;9.90;93.30;;;;;;5014127;28;20014;-48
2021/11/12 22:30:51;;;;;;;16.52;7.00;;;9.90;93.20;;;;;;5011967;28;20437;-48
2021/11/12 22:33:17;;;;;;;14.15;6.32;;;9.90;93.20;;;;;;5013482;28;20037;-48
2021/11/12 22:35:44;;;;;;;14.30;6.22;;;9.90;93.20;;;;;;5012106;28;20030;-48
2021/11/12 22:38:11;;;;;;;13.05;5.55;;;9.90;93.20;;;;;;5012902;28;20121;-47
2021/11/12 22:40:42;;;;;;;10.02;5.82;;;9.90;93.30;;;;;;5012101;28;20032;-48
2021/11/12 22:43:08;;;;;;;10.85;5.53;;;9.90;93.30;;;;;;5013153;28;20069;-48
2021/11/12 22:45:34;;;;;;;13.95;5.53;;;9.90;93.30;;;;;;5012757;28;20472;-47
2021/11/12 22:48:00;;;;;;;13.23;6.70;;;9.90;93.30;;;;;;5013316;28;20109;-48
2021/11/12 22:50:26;;;;;;;5.63;2.83;;;9.90;93.30;;;;;;5012972;28;20109;-47
2021/11/12 22:52:53;;;;;;;8.85;5.10;;;9.90;93.20;;;;;;5012438;28;20034;-48
2021/11/12 22:55:20;;;;;;;14.90;5.45;;;9.90;93.20;;;;;;5012728;28;20034;-48